ADDS METAR Data INFO
IDs: Format: Raw Decoded Include TAF

Data at: 0107 UTC 21 Oct 2017

KCQF 210055Z AUTO 00000KT 10SM OVC049 20/20 A3010 RMK AO2
KCQF 210035Z AUTO 00000KT 10SM BKN049 20/20 A3009 RMK AO2
KCQF 210015Z AUTO 00000KT 10SM CLR 21/21 A3009 RMK AO2
KCQF 202355Z AUTO 00000KT 10SM CLR 22/21 A3009 RMK AO2
KCQF 202335Z AUTO 00000KT 10SM CLR 23/20 A3009 RMK AO2
KCQF 202315Z AUTO 00000KT 10SM CLR 23/20 A3009 RMK AO2
KCQF 202255Z AUTO 11003KT 10SM CLR 24/20 A3009 RMK AO2
KCQF 202235Z AUTO 12003KT 10SM CLR 24/20 A3009 RMK AO2
KCQF 202215Z AUTO 14004KT 10SM CLR 25/20 A3008 RMK AO2
KCQF 202155Z AUTO 10005KT 10SM CLR 25/18 A3008 RMK AO2
KCQF 202135Z AUTO 10007KT 10SM CLR 26/17 A3008 RMK AO2
KCQF 202115Z AUTO 11004KT 10SM CLR 26/17 A3008 RMK AO2
KCQF 202055Z AUTO 10005KT 10SM CLR 26/16 A3009 RMK AO2
KCQF 202035Z AUTO 11006KT 10SM CLR 26/16 A3009 RMK AO2
KCQF 202015Z AUTO 10005KT 10SM CLR 26/15 A3009 RMK AO2
KCQF 201955Z AUTO 12007KT 10SM CLR 27/16 A3010 RMK AO2
KCQF 201935Z AUTO 10009KT 10SM CLR 27/16 A3010 RMK AO2
KCQF 201915Z AUTO 08008KT 10SM CLR 27/16 A3011 RMK AO2
KCQF 201855Z AUTO 08005KT 10SM CLR 26/15 A3011 RMK AO2
KCQF 201835Z AUTO 12006KT 10SM CLR 27/15 A3012 RMK AO2
KCQF 201815Z AUTO 06008KT 10SM CLR 26/15 A3013 RMK AO2
KCQF 201755Z AUTO 10009G14KT 10SM CLR 26/16 A3014 RMK AO2
KCQF 201735Z AUTO 09006KT 10SM CLR 26/17 A3015 RMK AO2
KCQF 201715Z AUTO 09008KT 10SM CLR 25/16 A3016 RMK AO2
KCQF 201655Z AUTO 09006G15KT 10SM CLR 25/16 A3017 RMK AO2
KCQF 201635Z AUTO 09008G14KT 10SM CLR 24/17 A3017 RMK AO2
KCQF 201615Z AUTO 09009G16KT 10SM CLR 24/17 A3017 RMK AO2
KCQF 201555Z AUTO 08011KT 050V110 10SM CLR 23/17 A3017 RMK AO2
KCQF 201535Z AUTO 09011G14KT 10SM CLR 23/17 A3018 RMK AO2
KCQF 201515Z AUTO 07012G16KT 040V110 10SM CLR 23/17 A3019 RMK AO2
KCQF 201455Z AUTO 08006KT 10SM CLR 22/17 A3019 RMK AO2
KCQF 201435Z AUTO 08009KT 10SM CLR 21/17 A3020 RMK AO2
KCQF 201415Z AUTO 07007KT 10SM CLR 21/17 A3020 RMK AO2
KCQF 201355Z AUTO 08007KT 10SM SCT055 20/16 A3020 RMK AO2
KCQF 201335Z AUTO 07007KT 10SM SCT055 19/16 A3019 RMK AO2
KCQF 201315Z AUTO 07007KT 10SM CLR 18/16 A3019 RMK AO2
KCQF 201255Z AUTO 06005KT 10SM CLR 17/15 A3018 RMK AO2
KCQF 201235Z AUTO 06005KT 10SM CLR 16/15 A3018 RMK AO2
KCQF 201215Z AUTO 06004KT 10SM CLR 16/15 A3017 RMK AO2
KCQF 201155Z AUTO 06004KT 10SM CLR 16/15 A3017 RMK AO2
KCQF 201135Z AUTO 06004KT 10SM CLR 16/15 A3017 RMK AO2
KCQF 201115Z AUTO 06005KT 10SM CLR 16/15 A3016 RMK AO2
KCQF 201055Z AUTO 06004KT 10SM CLR 16/15 A3016 RMK AO2
KCQF 201035Z AUTO 06004KT 10SM CLR 16/15 A3016 RMK AO2
KCQF 201015Z AUTO 06004KT 10SM CLR 16/15 A3016 RMK AO2
KCQF 200955Z AUTO 06004KT 10SM CLR 16/15 A3015 RMK AO2
KCQF 200935Z AUTO 06005KT 10SM CLR 16/15 A3015 RMK AO2
KCQF 200915Z AUTO 06004KT 10SM CLR 16/15 A3015 RMK AO2
KCQF 200855Z AUTO 05003KT 10SM CLR 16/16 A3015 RMK AO2
KCQF 200835Z AUTO 05005KT 10SM CLR 16/16 A3015 RMK AO2
KCQF 200815Z AUTO 05004KT 10SM CLR 16/16 A3015 RMK AO2
KCQF 200755Z AUTO 05004KT 10SM CLR 16/16 A3016 RMK AO2
KCQF 200735Z AUTO 06004KT 10SM CLR 16/16 A3017 RMK AO2
KCQF 200715Z AUTO 04004KT 10SM CLR 16/16 A3017 RMK AO2
KCQF 200655Z AUTO 04003KT 10SM CLR 16/16 A3017 RMK AO2
KCQF 200635Z AUTO 03003KT 10SM CLR 16/16 A3018 RMK AO2
KCQF 200615Z AUTO 01003KT 10SM CLR 16/16 A3017 RMK AO2
KCQF 200555Z AUTO 00000KT 10SM CLR 16/16 A3017 RMK AO2
KCQF 200535Z AUTO 02003KT 10SM CLR 16/16 A3017 RMK AO2
KCQF 200515Z AUTO 03003KT 10SM CLR 16/16 A3018 RMK AO2
KCQF 200455Z AUTO 04004KT 10SM CLR 17/16 A3017 RMK AO2
KCQF 200435Z AUTO 05003KT 10SM CLR 16/16 A3018 RMK AO2
KCQF 200415Z AUTO 00000KT 10SM CLR 17/16 A3018 RMK AO2
KCQF 200355Z AUTO 00000KT 10SM CLR 17/16 A3019 RMK AO2
KCQF 200335Z AUTO 02003KT 10SM CLR 17/16 A3019 RMK AO2
KCQF 200315Z AUTO 00000KT 10SM CLR 17/17 A3019 RMK AO2
KCQF 200255Z AUTO 00000KT 10SM CLR 17/17 A3019 RMK AO2
KCQF 200235Z AUTO 00000KT 10SM CLR 17/17 A3018 RMK AO2
KCQF 200215Z AUTO 00000KT 10SM CLR 17/17 A3018 RMK AO2
KCQF 200155Z AUTO 00000KT 10SM CLR 17/17 A3018 RMK AO2
KCQF 200135Z AUTO 00000KT 10SM CLR 17/17 A3017 RMK AO2
KCQF 200115Z AUTO 00000KT 10SM CLR 18/17 A3017 RMK AO2
KCQF 200055Z AUTO 03003KT 10SM CLR 18/17 A3017 RMK AO2
KCQF 200035Z AUTO 00000KT 10SM CLR 17/17 A3016 RMK AO2
KCQF 200015Z AUTO 00000KT 10SM CLR 18/18 A3016 RMK AO2
KCQF 192355Z AUTO 00000KT 10SM CLR 19/18 A3015 RMK AO2
KCQF 192335Z AUTO 00000KT 10SM CLR 21/17 A3014 RMK AO2
KCQF 192315Z AUTO 00000KT 10SM CLR 22/17 A3014 RMK AO2
KCQF 192255Z AUTO 03003KT 10SM CLR 23/17 A3014 RMK AO2
KCQF 192235Z AUTO 03004KT 10SM CLR 25/16 A3014 RMK AO2
KCQF 192215Z AUTO 04005KT 10SM CLR 25/16 A3014 RMK AO2
KCQF 192155Z AUTO 03005KT 10SM CLR 26/15 A3014 RMK AO2
KCQF 192135Z AUTO 03008KT 10SM CLR 26/15 A3014 RMK AO2
KCQF 192115Z AUTO 03006KT 10SM CLR 26/15 A3014 RMK AO2
KCQF 192055Z AUTO 04005KT 10SM SCT048 26/16 A3014 RMK AO2
KCQF 192035Z AUTO 02008KT 10SM SCT048 27/16 A3014 RMK AO2
KCQF 192015Z AUTO 02008KT 10SM CLR 27/15 A3014 RMK AO2
KCQF 191955Z AUTO 02007KT 10SM SCT047 26/16 A3015 RMK AO2
KCQF 191935Z AUTO 04007KT 10SM BKN047 26/16 A3015 RMK AO2
KCQF 191915Z AUTO 04007KT 10SM OVC047 27/16 A3016 RMK AO2
KCQF 191855Z AUTO 11005KT 10SM BKN045 26/16 A3017 RMK AO2
KCQF 191835Z AUTO 07003KT 10SM SCT043 25/16 A3018 RMK AO2
KCQF 191815Z AUTO 05005KT 10SM CLR 26/16 A3019 RMK AO2
KCQF 191755Z AUTO 08007KT 10SM CLR 25/16 A3019 RMK AO2
KCQF 191735Z AUTO 05006KT 10SM CLR 25/16 A3020 RMK AO2
KCQF 191715Z AUTO 06007KT 10SM CLR 25/16 A3021 RMK AO2
KCQF 191655Z AUTO 05009KT 10SM CLR 25/16 A3022 RMK AO2
KCQF 191635Z AUTO 09007KT 10SM CLR 25/16 A3022 RMK AO2
KCQF 191615Z AUTO 11008KT 10SM CLR 24/16 A3023 RMK AO2
KCQF 191555Z AUTO 05008KT 10SM CLR 23/17 A3023 RMK AO2
KCQF 191535Z AUTO 07006KT 10SM CLR 22/18 A3022 RMK AO2
KCQF 191515Z AUTO 07005KT 10SM CLR 22/17 A3022 RMK AO2
KCQF 191455Z AUTO 06006KT 10SM CLR 21/17 A3022 RMK AO2
KCQF 191435Z AUTO 07006KT 10SM CLR 20/17 A3022 RMK AO2
KCQF 191415Z AUTO 08006KT 10SM CLR 20/16 A3022 RMK AO2
KCQF 191355Z AUTO 07006KT 10SM CLR 18/16 A3021 RMK AO2
KCQF 191335Z AUTO 07007KT 10SM CLR 17/15 A3020 RMK AO2
KCQF 191315Z AUTO 06004KT 10SM CLR 17/15 A3019 RMK AO2